createdAt,value
2023-01-29T00:02:05.783Z,102235.75
2023-01-29T00:04:34.138Z,102231.44
2023-01-29T00:07:03.205Z,102227.16
2023-01-29T00:09:31.942Z,102221.91
2023-01-29T00:11:59.736Z,102234.09
2023-01-29T00:14:27.535Z,102230.66
2023-01-29T00:16:55.437Z,102215.84
2023-01-29T00:19:23.280Z,102212.44
2023-01-29T00:21:50.997Z,102215.03
2023-01-29T00:24:20.034Z,102215.94
2023-01-29T00:26:49.241Z,102207.25
2023-01-29T00:29:17.875Z,102199.47
2023-01-29T00:31:46.141Z,102181.25
2023-01-29T00:34:14.022Z,102175.16
2023-01-29T00:36:44.252Z,102176.88
2023-01-29T00:39:11.930Z,102164.75
2023-01-29T00:41:58.581Z,102158.63
2023-01-29T00:44:43.981Z,102155.16
2023-01-29T00:47:30.906Z,102160.34
2023-01-29T00:49:58.674Z,102162.94
2023-01-29T00:52:26.381Z,102164.69
2023-01-29T00:54:54.510Z,102176.88
2023-01-29T00:57:23.964Z,102180.38
2023-01-29T00:59:51.639Z,102176.03
2023-01-29T01:02:37.562Z,102168.22
2023-01-29T01:05:07.671Z,102182.09
2023-01-29T01:07:35.429Z,102176.91
2023-01-29T01:10:20.661Z,102188.19
2023-01-29T01:12:51.686Z,102173.41
2023-01-29T01:15:20.961Z,102182.03
2023-01-29T01:17:49.625Z,102182.94
2023-01-29T01:20:17.775Z,102187.22
2023-01-29T01:22:45.613Z,102187.22
2023-01-29T01:25:13.338Z,102196.78
2023-01-29T01:27:41.575Z,102197.72
2023-01-29T01:30:13.802Z,102188.19
2023-01-29T01:32:42.054Z,102184.69
2023-01-29T01:35:10.523Z,102177.75
2023-01-29T01:37:38.767Z,102176.91
2023-01-29T01:40:12.705Z,102177.75
2023-01-29T01:42:40.796Z,102185.59
2023-01-29T01:45:16.042Z,102186.44
2023-01-29T01:47:48.213Z,102190.78
2023-01-29T01:50:18.565Z,102194.25
2023-01-29T01:52:48.495Z,102183.84
2023-01-29T01:55:18.220Z,102188.19
2023-01-29T01:57:48.973Z,102188.19
2023-01-29T02:00:19.740Z,102185.47
2023-01-29T02:03:05.401Z,102187.28
2023-01-29T02:05:51.719Z,102192.50
2023-01-29T02:08:39.409Z,102182.88
2023-01-29T02:11:07.279Z,102195.09
2023-01-29T02:13:35.063Z,102187.28
2023-01-29T02:16:04.093Z,102186.44
2023-01-29T02:18:37.953Z,102189.03
2023-01-29T02:21:32.810Z,102194.25
2023-01-29T02:24:28.476Z,102195.13
2023-01-29T02:27:04.777Z,102203.81
2023-01-29T02:29:39.337Z,102193.38
2023-01-29T02:32:17.259Z,102204.66
2023-01-29T02:35:07.995Z,102207.25
2023-01-29T02:37:39.591Z,102206.38
2023-01-29T02:40:14.803Z,102207.25
2023-01-29T02:42:48.353Z,102211.59
2023-01-29T02:45:20.423Z,102208.97
2023-01-29T02:47:50.882Z,102201.16
2023-01-29T02:50:21.649Z,102196.84
2023-01-29T02:52:56.877Z,102199.47
2023-01-29T02:55:28.280Z,102197.72
2023-01-29T02:57:59.226Z,102195.97
2023-01-29T03:00:31.447Z,102191.63
2023-01-29T03:03:02.167Z,102193.41
2023-01-29T03:05:33.843Z,102192.53
2023-01-29T03:08:05.517Z,102180.41
2023-01-29T03:10:36.554Z,102174.28
2023-01-29T03:13:07.621Z,102165.63
2023-01-29T03:15:42.765Z,102160.44
2023-01-29T03:18:13.858Z,102161.31
2023-01-29T03:20:47.975Z,102160.44
2023-01-29T03:23:23.708Z,102152.63
2023-01-29T03:26:10.512Z,102154.38
2023-01-29T03:28:56.362Z,102148.31
2023-01-29T03:31:44.488Z,102135.28
2023-01-29T03:34:16.498Z,102138.75
2023-01-29T03:36:48.241Z,102138.75
2023-01-29T03:39:16.628Z,102128.34
2023-01-29T03:41:47.640Z,102117.06
2023-01-29T03:44:17.585Z,102113.63
2023-01-29T03:46:50.150Z,102105.81
2023-01-29T03:49:22.670Z,102102.34
2023-01-29T03:51:56.393Z,102101.47
2023-01-29T03:54:27.386Z,102100.59
2023-01-29T03:56:58.990Z,102102.34
2023-01-29T03:59:34.842Z,102095.41
2023-01-29T04:02:06.009Z,102088.47
2023-01-29T04:04:36.370Z,102085.00
2023-01-29T04:07:07.549Z,102084.13
2023-01-29T04:09:38.420Z,102090.22
2023-01-29T04:12:09.692Z,102090.22
2023-01-29T04:14:37.967Z,102096.28
2023-01-29T04:17:09.892Z,102091.06
2023-01-29T04:19:37.720Z,102088.47
2023-01-29T04:22:08.374Z,102086.75
2023-01-29T04:24:36.303Z,102097.16
2023-01-29T04:27:20.835Z,102086.75
2023-01-29T04:29:59.479Z,102085.00
2023-01-29T04:32:32.985Z,102083.25
2023-01-29T04:35:02.540Z,102080.66
2023-01-29T04:37:38.426Z,102071.13
2023-01-29T04:40:17.158Z,102071.13
2023-01-29T04:42:50.374Z,102069.38
2023-01-29T04:45:25.186Z,102069.38
2023-01-29T04:48:01.332Z,102072.84
2023-01-29T04:50:32.539Z,102071.13
2023-01-29T04:53:03.592Z,102072.84
2023-01-29T04:55:36.028Z,102070.25
2023-01-29T04:58:08.036Z,102071.13
2023-01-29T05:00:37.198Z,102075.47
2023-01-29T05:03:09.686Z,102077.19
2023-01-29T05:05:37.799Z,102080.66
2023-01-29T05:08:06.119Z,102070.25
2023-01-29T05:10:34.784Z,102072.84
2023-01-29T05:13:04.621Z,102073.72
2023-01-29T05:15:36.533Z,102082.41
2023-01-29T05:18:08.919Z,102076.31
2023-01-29T05:20:38.008Z,102069.38
2023-01-29T05:23:06.000Z,102082.41
2023-01-29T05:25:35.186Z,102085.00
2023-01-29T05:28:05.111Z,102090.22
2023-01-29T05:30:34.306Z,102093.66
2023-01-29T05:33:02.067Z,102095.41
2023-01-29T05:35:31.631Z,102089.34
2023-01-29T05:37:59.468Z,102084.16
2023-01-29T05:40:27.177Z,102069.38
2023-01-29T05:42:54.886Z,102059.84
2023-01-29T05:45:22.647Z,102064.16
2023-01-29T05:47:50.307Z,102052.03
2023-01-29T05:50:18.625Z,102050.28
2023-01-29T05:52:47.866Z,102056.38
2023-01-29T05:55:15.535Z,102054.63
2023-01-29T05:57:43.205Z,102056.38
2023-01-29T06:00:13.172Z,102055.50
2023-01-29T06:02:41.048Z,102040.75
2023-01-29T06:05:09.902Z,102046.84
2023-01-29T06:07:37.588Z,102051.16
2023-01-29T06:10:07.384Z,102065.06
2023-01-29T06:12:35.071Z,102060.72
2023-01-29T06:15:02.725Z,102068.53
2023-01-29T06:17:30.439Z,102053.78
2023-01-29T06:19:58.097Z,102043.34
2023-01-29T06:22:25.797Z,102039.88
2023-01-29T06:24:53.422Z,102034.69
2023-01-29T06:27:22.490Z,102038.16
2023-01-29T06:29:50.306Z,102036.41
2023-01-29T06:32:18.123Z,102040.75
2023-01-29T06:34:47.893Z,102030.34
2023-01-29T06:37:16.363Z,102023.41
2023-01-29T06:39:44.434Z,102029.50
2023-01-29T06:42:12.103Z,102023.41
2023-01-29T06:44:41.172Z,102020.81
2023-01-29T06:47:08.946Z,102019.94
2023-01-29T06:49:36.634Z,102027.75
2023-01-29T06:52:04.287Z,102019.06
2023-01-29T06:54:31.988Z,102017.34
2023-01-29T06:56:59.616Z,102026.00
2023-01-29T06:59:27.421Z,102021.69
2023-01-29T07:01:56.499Z,102025.16
2023-01-29T07:04:24.260Z,102023.41
2023-01-29T07:06:51.954Z,102032.09
2023-01-29T07:09:19.634Z,102037.28
2023-01-29T07:11:48.022Z,102031.22
2023-01-29T07:14:15.670Z,102034.69
2023-01-29T07:16:43.416Z,102027.75
2023-01-29T07:19:12.702Z,102022.56
2023-01-29T07:21:40.402Z,102019.06
2023-01-29T07:24:08.578Z,102011.28
2023-01-29T07:26:36.274Z,102014.75
2023-01-29T07:29:05.905Z,102030.34
2023-01-29T07:31:33.647Z,102026.88
2023-01-29T07:34:01.437Z,102028.63
2023-01-29T07:36:30.759Z,102013.88
2023-01-29T07:38:58.476Z,102013.88
2023-01-29T07:41:26.153Z,102007.78
2023-01-29T07:43:53.810Z,102018.22
2023-01-29T07:46:21.439Z,102012.13
2023-01-29T07:48:49.167Z,102000.84
2023-01-29T07:51:18.458Z,102001.72
2023-01-29T07:53:47.823Z,101996.50
2023-01-29T07:56:15.637Z,101991.31
2023-01-29T07:58:43.334Z,101995.66
2023-01-29T08:01:11.190Z,101980.00
2023-01-29T08:03:39.032Z,101978.25
2023-01-29T08:06:07.056Z,101973.03
2023-01-29T08:08:34.750Z,101971.34
2023-01-29T08:11:05.590Z,101970.44
2023-01-29T08:13:33.990Z,101982.59
2023-01-29T08:16:02.392Z,101970.44
2023-01-29T08:18:31.423Z,101975.63
2023-01-29T08:21:02.280Z,101974.63
2023-01-29T08:23:29.973Z,101970.28
2023-01-29T08:25:57.724Z,101982.47
2023-01-29T08:28:26.870Z,101983.28
2023-01-29T08:30:54.885Z,101973.69
2023-01-29T08:33:29.786Z,101972.88
2023-01-29T08:36:01.263Z,101975.44
2023-01-29T08:38:28.938Z,101966.72
2023-01-29T08:40:56.591Z,101959.91
2023-01-29T08:43:24.228Z,101970.28
2023-01-29T08:45:53.336Z,101972.84
2023-01-29T08:48:21.094Z,101963.34
2023-01-29T08:50:48.800Z,101971.19
2023-01-29T08:53:16.524Z,101974.59
2023-01-29T08:55:44.232Z,101975.50
2023-01-29T08:58:12.996Z,101970.22
2023-01-29T09:00:40.685Z,101966.78
2023-01-29T09:03:10.102Z,101965.03
2023-01-29T09:05:38.854Z,101972.88
2023-01-29T09:08:07.251Z,101952.09
2023-01-29T09:10:35.404Z,101959.84
2023-01-29T09:13:03.069Z,101947.75
2023-01-29T09:15:30.809Z,101955.56
2023-01-29T09:17:58.529Z,101973.69
2023-01-29T09:20:27.521Z,101971.91
2023-01-29T09:22:56.723Z,101978.00
2023-01-29T09:25:24.389Z,101977.13
2023-01-29T09:27:52.063Z,101975.44
2023-01-29T09:30:20.005Z,101967.63
2023-01-29T09:32:55.275Z,101968.47
2023-01-29T09:35:23.820Z,101968.56
2023-01-29T09:37:53.067Z,101966.75
2023-01-29T09:40:26.783Z,101965.00
2023-01-29T09:42:58.492Z,101958.13
2023-01-29T09:45:27.784Z,101965.88
2023-01-29T09:47:59.003Z,101959.84
2023-01-29T09:50:31.440Z,101954.56
2023-01-29T09:53:03.893Z,101954.50
2023-01-29T09:55:35.221Z,101938.94
2023-01-29T09:58:07.602Z,101936.22
2023-01-29T10:00:38.900Z,101928.47
2023-01-29T10:03:21.955Z,101925.84
2023-01-29T10:05:57.029Z,101926.63
2023-01-29T10:08:46.904Z,101934.38
2023-01-29T10:11:25.073Z,101924.78
2023-01-29T10:14:00.897Z,101931.72
2023-01-29T10:16:38.927Z,101917.81
2023-01-29T10:19:26.255Z,101907.53
2023-01-29T10:22:12.895Z,101914.34
2023-01-29T10:24:46.647Z,101898.97
2023-01-29T10:27:16.563Z,101907.44
2023-01-29T10:29:45.503Z,101896.34
2023-01-29T10:32:16.685Z,101898.03
2023-01-29T10:34:48.087Z,101902.34
2023-01-29T10:37:18.475Z,101898.75
2023-01-29T10:39:47.653Z,101900.41
2023-01-29T10:42:25.628Z,101886.66
2023-01-29T10:45:04.779Z,101884.06
2023-01-29T10:47:53.589Z,101882.38
2023-01-29T10:50:29.683Z,101858.84
2023-01-29T10:53:09.221Z,101875.28
2023-01-29T10:55:48.889Z,101877.66
2023-01-29T10:58:23.863Z,101870.78
2023-01-29T11:00:52.272Z,101858.09
2023-01-29T11:03:27.911Z,101862.25
2023-01-29T11:06:01.145Z,101864.88
2023-01-29T11:08:32.689Z,101858.78
2023-01-29T11:11:08.367Z,101857.16
2023-01-29T11:13:39.956Z,101846.84
2023-01-29T11:16:09.960Z,101847.59
2023-01-29T11:18:55.616Z,101849.94
2023-01-29T11:21:24.499Z,101838.72
2023-01-29T11:23:52.698Z,101835.31
2023-01-29T11:26:23.948Z,101831.75
2023-01-29T11:28:52.299Z,101825.75
2023-01-29T11:31:23.004Z,101817.22
2023-01-29T11:33:52.556Z,101814.72
2023-01-29T11:36:32.775Z,101812.06
2023-01-29T11:39:21.927Z,101810.13
2023-01-29T11:41:54.890Z,101798.91
2023-01-29T11:44:28.169Z,101812.66
2023-01-29T11:46:56.294Z,101793.38
2023-01-29T11:49:32.088Z,101789.13
2023-01-29T11:52:01.872Z,101782.03
2023-01-29T11:54:34.449Z,101777.72
2023-01-29T11:57:04.262Z,101780.19
2023-01-29T11:59:42.746Z,101763.91
2023-01-29T12:02:20.375Z,101759.78
2023-01-29T12:04:48.660Z,101751.94
2023-01-29T12:07:17.855Z,101740.72
2023-01-29T12:09:51.438Z,101747.84
2023-01-29T12:12:30.177Z,101754.56
2023-01-29T12:15:15.718Z,101742.50
2023-01-29T12:17:45.214Z,101733.88
2023-01-29T12:20:16.425Z,101722.53
2023-01-29T12:22:48.578Z,101729.28
2023-01-29T12:25:22.222Z,101724.09
2023-01-29T12:27:56.718Z,101728.19
2023-01-29T12:30:27.215Z,101726.41
2023-01-29T12:32:59.439Z,101714.69
2023-01-29T12:35:30.848Z,101713.78
2023-01-29T12:38:01.856Z,101704.50
2023-01-29T12:40:33.335Z,101693.53
2023-01-29T12:43:05.894Z,101695.78
2023-01-29T12:45:34.033Z,101701.06
2023-01-29T12:48:03.704Z,101698.44
2023-01-29T12:50:34.660Z,101692.22
2023-01-29T12:53:06.401Z,101689.66
2023-01-29T12:55:38.415Z,101687.91
2023-01-29T12:58:13.632Z,101676.69
2023-01-29T13:00:43.434Z,101673.31
2023-01-29T13:03:18.796Z,101661.22
2023-01-29T13:05:48.391Z,101669.72
2023-01-29T13:08:20.062Z,101654.94
2023-01-29T13:10:50.641Z,101642.91
2023-01-29T13:13:25.618Z,101646.16
2023-01-29T13:15:53.820Z,101642.69
2023-01-29T13:18:34.726Z,101628.63
2023-01-29T13:21:02.422Z,101639.63
2023-01-29T13:23:35.218Z,101629.16
2023-01-29T13:26:03.812Z,101619.88
2023-01-29T13:28:33.130Z,101624.06
2023-01-29T13:31:31.660Z,101620.66
2023-01-29T13:34:11.089Z,101615.34
2023-01-29T13:36:43.486Z,101623.06
2023-01-29T13:39:20.620Z,101614.56
2023-01-29T13:41:48.305Z,101601.97
2023-01-29T13:44:26.268Z,101597.72
2023-01-29T13:46:57.682Z,101598.41
2023-01-29T13:49:35.781Z,101597.53
2023-01-29T13:52:18.710Z,101588.97
2023-01-29T13:54:53.346Z,101589.75
2023-01-29T13:57:56.310Z,101585.50
2023-01-29T14:00:59.291Z,101580.44
2023-01-29T14:04:04.509Z,101585.66
2023-01-29T14:06:56.836Z,101582.47
2023-01-29T14:10:03.217Z,101571.94
2023-01-29T14:12:37.824Z,101573.69
2023-01-29T14:15:19.920Z,101577.91
2023-01-29T14:18:05.092Z,101581.25
2023-01-29T14:20:45.483Z,101582.16
2023-01-29T14:23:23.874Z,101572.59
2023-01-29T14:25:51.763Z,101572.34
2023-01-29T14:28:23.438Z,101563.53
2023-01-29T14:30:51.755Z,101548.72
2023-01-29T14:33:28.115Z,101552.03
2023-01-29T14:35:57.612Z,101549.09
2023-01-29T14:38:27.274Z,101545.72
2023-01-29T14:41:09.006Z,101539.75
2023-01-29T14:43:36.692Z,101533.63
2023-01-29T14:46:51.865Z,101526.56
2023-01-29T14:49:51.394Z,101526.50
2023-01-29T14:52:20.528Z,101524.88
2023-01-29T14:54:49.607Z,101528.38
2023-01-29T14:57:18.358Z,101525.72
2023-01-29T14:59:50.687Z,101521.50
2023-01-29T15:02:20.529Z,101509.53
2023-01-29T15:04:52.095Z,101519.88
2023-01-29T15:07:26.849Z,101506.00
2023-01-29T15:10:13.565Z,101497.50
2023-01-29T15:12:50.282Z,101492.28
2023-01-29T15:15:21.628Z,101489.53
2023-01-29T15:17:55.929Z,101496.56
2023-01-29T15:20:33.388Z,101485.44
2023-01-29T15:23:03.168Z,101490.66
2023-01-29T15:25:36.352Z,101493.16
2023-01-29T15:28:08.426Z,101487.19
2023-01-29T15:30:36.905Z,101494.25
2023-01-29T15:33:05.054Z,101484.72
2023-01-29T15:35:36.690Z,101488.25
2023-01-29T15:38:06.618Z,101484.56
2023-01-29T15:40:34.477Z,101487.31
2023-01-29T15:43:02.226Z,101484.75
2023-01-29T15:45:31.952Z,101482.06
2023-01-29T15:48:03.897Z,101480.53
2023-01-29T15:50:34.330Z,101481.34
2023-01-29T15:53:05.201Z,101476.00
2023-01-29T15:55:33.125Z,101459.66
2023-01-29T15:58:01.348Z,101461.22
2023-01-29T16:00:30.353Z,101462.97
2023-01-29T16:03:00.627Z,101470.84
2023-01-29T16:05:29.971Z,101469.03
2023-01-29T16:08:00.421Z,101459.78
2023-01-29T16:10:29.840Z,101464.06
2023-01-29T16:12:58.804Z,101456.38
2023-01-29T16:15:32.429Z,101446.66
2023-01-29T16:18:01.623Z,101453.53
2023-01-29T16:20:36.379Z,101437.97
2023-01-29T16:23:06.219Z,101445.75
2023-01-29T16:25:35.789Z,101444.00
2023-01-29T16:28:05.649Z,101434.59
2023-01-29T16:30:33.460Z,101434.81
2023-01-29T16:33:04.867Z,101438.91
2023-01-29T16:35:32.721Z,101440.56
2023-01-29T16:38:05.839Z,101439.69
2023-01-29T16:40:35.127Z,101447.41
2023-01-29T16:43:45.986Z,101437.97
2023-01-29T16:46:19.804Z,101429.47
2023-01-29T16:48:47.908Z,101432.78
2023-01-29T16:51:20.400Z,101421.44
2023-01-29T16:53:57.412Z,101418.09
2023-01-29T16:56:26.016Z,101410.38
2023-01-29T16:58:54.527Z,101406.00
2023-01-29T17:01:24.471Z,101402.69
2023-01-29T17:03:58.109Z,101409.53
2023-01-29T17:06:27.308Z,101411.78
2023-01-29T17:08:56.706Z,101406.59
2023-01-29T17:11:28.863Z,101390.25
2023-01-29T17:13:57.432Z,101398.13
2023-01-29T17:16:28.998Z,101379.22
2023-01-29T17:18:57.677Z,101383.66
2023-01-29T17:21:25.696Z,101378.53
2023-01-29T17:23:54.155Z,101381.91
2023-01-29T17:26:24.750Z,101390.38
2023-01-29T17:28:53.060Z,101370.66
2023-01-29T17:31:21.109Z,101385.28
2023-01-29T17:33:49.126Z,101380.25
2023-01-29T17:36:18.192Z,101378.44
2023-01-29T17:38:46.040Z,101373.31
2023-01-29T17:41:17.467Z,101367.22
2023-01-29T17:43:46.482Z,101366.25
2023-01-29T17:46:16.214Z,101359.41
2023-01-29T17:48:44.285Z,101361.13
2023-01-29T17:51:14.350Z,101356.72
2023-01-29T17:53:46.005Z,101352.44
2023-01-29T17:56:17.926Z,101354.25
2023-01-29T17:58:46.967Z,101346.34
2023-01-29T18:01:14.669Z,101346.16
2023-01-29T18:03:42.408Z,101330.06
2023-01-29T18:06:10.828Z,101330.03
2023-01-29T18:08:39.481Z,101334.97
2023-01-29T18:11:07.300Z,101323.94
2023-01-29T18:13:36.111Z,101326.44
2023-01-29T18:16:05.573Z,101323.81
2023-01-29T18:18:33.329Z,101310.06
2023-01-29T18:21:00.993Z,101315.13
2023-01-29T18:23:29.404Z,101316.72
2023-01-29T18:25:57.727Z,101311.66
2023-01-29T18:28:26.004Z,101318.56
2023-01-29T18:30:53.856Z,101291.03
2023-01-29T18:33:24.148Z,101296.06
2023-01-29T18:35:51.845Z,101286.66
2023-01-29T18:38:19.591Z,101286.59
2023-01-29T18:40:47.314Z,101281.44
2023-01-29T18:43:15.462Z,101276.22
2023-01-29T18:45:43.647Z,101281.22
2023-01-29T18:48:11.368Z,101279.44
2023-01-29T18:50:40.429Z,101277.78
2023-01-29T18:53:08.171Z,101278.66
2023-01-29T18:55:35.878Z,101253.59
2023-01-29T18:58:26.897Z,101262.84
2023-01-29T19:00:51.397Z,101257.53
2023-01-29T19:03:19.153Z,101234.41
2023-01-29T19:05:48.203Z,101249.75
2023-01-29T19:08:15.967Z,101242.84
2023-01-29T19:10:43.634Z,101238.63
2023-01-29T19:13:11.318Z,101226.53
2023-01-29T19:15:43.020Z,101225.66
2023-01-29T19:18:14.702Z,101227.38
2023-01-29T19:20:42.935Z,101223.78
2023-01-29T19:23:11.951Z,101226.59
2023-01-29T19:25:40.393Z,101229.00
2023-01-29T19:28:09.012Z,101205.75
2023-01-29T19:30:36.848Z,101199.66
2023-01-29T19:33:04.800Z,101197.16
2023-01-29T19:35:33.439Z,101191.84
2023-01-29T19:38:01.501Z,101202.97
2023-01-29T19:40:30.543Z,101201.41
2023-01-29T19:42:58.695Z,101202.00
2023-01-29T19:45:48.925Z,101194.56
2023-01-29T19:48:14.758Z,101188.03
2023-01-29T19:50:42.529Z,101193.25
2023-01-29T19:53:10.342Z,101184.06
2023-01-29T19:55:39.403Z,101164.22
2023-01-29T19:58:07.063Z,101171.91
2023-01-29T20:00:34.794Z,101170.03
2023-01-29T20:03:02.470Z,101178.84
2023-01-29T20:05:30.143Z,101168.53
2023-01-29T20:07:57.832Z,101164.06
2023-01-29T20:10:25.635Z,101159.94
2023-01-29T20:12:54.669Z,101163.28
2023-01-29T20:15:22.580Z,101163.28
2023-01-29T20:17:50.295Z,101163.31
2023-01-29T20:20:18.419Z,101150.19
2023-01-29T20:22:46.312Z,101152.91
2023-01-29T20:25:14.435Z,101134.50
2023-01-29T20:27:42.444Z,101132.97
2023-01-29T20:30:12.900Z,101140.53
2023-01-29T20:32:40.713Z,101156.91
2023-01-29T20:35:09.848Z,101154.31
2023-01-29T20:37:37.551Z,101144.75
2023-01-29T20:40:06.075Z,101147.47
2023-01-29T20:42:33.814Z,101139.53
2023-01-29T20:45:01.500Z,101144.28
2023-01-29T20:47:30.608Z,101128.47
2023-01-29T20:49:58.284Z,101128.16
2023-01-29T20:52:26.290Z,101124.28
2023-01-29T20:54:54.253Z,101132.31
2023-01-29T20:57:22.011Z,101151.03
2023-01-29T20:59:50.091Z,101146.50
2023-01-29T21:02:17.784Z,101131.53
2023-01-29T21:04:46.805Z,101111.72
2023-01-29T21:07:14.449Z,101111.16
2023-01-29T21:09:42.226Z,101109.34
2023-01-29T21:12:09.941Z,101118.16
2023-01-29T21:14:37.691Z,101114.47
2023-01-29T21:17:06.086Z,101098.41
2023-01-29T21:19:34.025Z,101119.06
2023-01-29T21:22:03.035Z,101128.47
2023-01-29T21:24:30.759Z,101127.66
2023-01-29T21:26:58.435Z,101108.66
2023-01-29T21:29:26.161Z,101101.53
2023-01-29T21:31:53.913Z,101117.31
2023-01-29T21:34:21.711Z,101113.91
2023-01-29T21:36:49.380Z,101120.69
2023-01-29T21:39:20.546Z,101117.25
2023-01-29T21:42:07.588Z,101119.88
2023-01-29T21:44:35.927Z,101120.66
2023-01-29T21:47:12.234Z,101124.13
2023-01-29T21:49:41.420Z,101115.53
2023-01-29T21:52:09.882Z,101103.88
2023-01-29T21:54:39.886Z,101094.47
2023-01-29T21:57:11.060Z,101102.19
2023-01-29T21:59:38.802Z,101094.91
2023-01-29T22:02:06.550Z,101083.28
2023-01-29T22:04:34.423Z,101064.53
2023-01-29T22:07:02.105Z,101049.03
2023-01-29T22:09:30.007Z,101040.09
2023-01-29T22:11:59.153Z,101002.56
2023-01-29T22:14:26.811Z,100997.31
2023-01-29T22:16:54.581Z,100994.97
2023-01-29T22:19:23.459Z,100994.78
2023-01-29T22:21:52.748Z,100977.47
2023-01-29T22:24:21.319Z,100982.50
2023-01-29T22:26:49.643Z,100971.38
2023-01-29T22:29:19.565Z,100971.31
2023-01-29T22:31:47.682Z,100964.56
2023-01-29T22:34:15.760Z,100967.19
2023-01-29T22:36:43.413Z,100978.34
2023-01-29T22:39:11.580Z,100970.97
2023-01-29T22:41:39.267Z,100964.75
2023-01-29T22:44:06.987Z,100956.84
2023-01-29T22:46:36.181Z,100946.94
2023-01-29T22:49:03.872Z,100944.34
2023-01-29T22:51:31.597Z,100949.47
2023-01-29T22:53:59.327Z,100939.34
2023-01-29T22:56:29.539Z,100932.06
2023-01-29T22:58:58.567Z,100882.66
2023-01-29T23:01:27.754Z,100883.25
2023-01-29T23:03:57.030Z,100870.97
2023-01-29T23:06:25.088Z,100866.56
2023-01-29T23:08:52.997Z,100881.31
2023-01-29T23:11:23.564Z,100882.81
2023-01-29T23:13:53.278Z,100877.03
2023-01-29T23:16:22.875Z,100907.53
2023-01-29T23:18:51.401Z,100895.94
2023-01-29T23:21:21.462Z,100899.44
2023-01-29T23:23:49.574Z,100930.03
2023-01-29T23:26:34.923Z,100924.22
2023-01-29T23:29:04.274Z,100932.66
2023-01-29T23:31:32.591Z,100923.03
2023-01-29T23:34:00.356Z,100910.53
2023-01-29T23:36:29.447Z,100910.22
2023-01-29T23:38:57.144Z,100898.41
2023-01-29T23:41:24.882Z,100894.72
2023-01-29T23:43:52.936Z,100899.91
2023-01-29T23:46:20.627Z,100896.81
2023-01-29T23:48:48.397Z,100885.94
2023-01-29T23:51:16.022Z,100889.19
2023-01-29T23:53:45.085Z,100878.19
2023-01-29T23:56:12.884Z,100882.50
2023-01-29T23:58:40.633Z,100879.16
